createdAt,value
2019-01-20T00:02:58.964Z,63.00
2019-01-20T00:06:03.363Z,63.00
2019-01-20T00:09:07.741Z,63.00
2019-01-20T00:12:12.144Z,63.00
2019-01-20T00:15:16.558Z,63.00
2019-01-20T00:18:20.930Z,63.00
2019-01-20T00:21:25.328Z,63.00
2019-01-20T00:24:29.696Z,63.00
2019-01-20T00:27:23.029Z,63.00
2019-01-20T00:30:27.408Z,63.00
2019-01-20T00:33:31.809Z,63.00
2019-01-20T00:36:36.202Z,63.00
2019-01-20T00:39:40.578Z,63.00
2019-01-20T00:42:44.977Z,63.00
2019-01-20T00:45:49.461Z,63.00
2019-01-20T00:48:53.795Z,63.00
2019-01-20T00:51:58.195Z,63.00
2019-01-20T00:55:02.559Z,63.00
2019-01-20T00:58:06.965Z,62.00
2019-01-20T01:01:11.384Z,62.00
2019-01-20T01:04:15.763Z,63.00
2019-01-20T01:07:09.094Z,63.00
2019-01-20T01:10:13.461Z,62.00
2019-01-20T01:13:17.862Z,63.00
2019-01-20T01:16:22.234Z,63.00
2019-01-20T01:19:26.628Z,63.00
2019-01-20T01:22:31.030Z,62.00
2019-01-20T01:25:35.405Z,63.00
2019-01-20T01:28:39.804Z,63.00
2019-01-20T01:31:44.242Z,63.00
2019-01-20T01:34:48.584Z,62.00
2019-01-20T01:37:52.982Z,63.00
2019-01-20T01:40:57.360Z,63.00
2019-01-20T01:44:01.762Z,62.00
2019-01-20T01:46:55.068Z,63.00
2019-01-20T01:49:59.465Z,62.00
2019-01-20T01:53:03.860Z,63.00
2019-01-20T01:56:08.238Z,63.00
2019-01-20T01:59:12.632Z,63.00
2019-01-20T02:02:17.009Z,63.00
2019-01-20T02:05:21.402Z,63.00
2019-01-20T02:08:25.777Z,62.00
2019-01-20T02:11:30.176Z,63.00
2019-01-20T02:14:34.574Z,63.00
2019-01-20T02:17:27.894Z,63.00
2019-01-20T02:20:32.272Z,63.00
2019-01-20T02:23:36.673Z,63.00
2019-01-20T02:26:41.048Z,63.00
2019-01-20T02:29:45.459Z,63.00
2019-01-20T02:32:49.832Z,63.00
2019-01-20T02:35:54.231Z,63.00
2019-01-20T02:38:58.608Z,63.00
2019-01-20T02:42:02.997Z,63.00
2019-01-20T02:45:07.385Z,63.00
2019-01-20T02:48:11.759Z,63.00
2019-01-20T02:51:16.157Z,63.00
2019-01-20T02:54:20.538Z,63.00
2019-01-20T02:57:13.865Z,63.00
2019-01-20T03:00:18.264Z,63.00
2019-01-20T03:03:22.647Z,63.00
2019-01-20T03:06:27.053Z,63.00
2019-01-20T03:09:31.423Z,63.00
2019-01-20T03:12:35.821Z,63.00
2019-01-20T03:15:40.240Z,63.00
2019-01-20T03:18:44.609Z,63.00
2019-01-20T03:21:49.010Z,63.00
2019-01-20T03:24:53.394Z,63.00
2019-01-20T03:27:57.774Z,63.00
2019-01-20T03:31:02.172Z,63.00
2019-01-20T03:34:06.545Z,63.00
2019-01-20T03:36:59.869Z,63.00
2019-01-20T03:40:04.249Z,63.00
2019-01-20T03:43:08.653Z,63.00
2019-01-20T03:46:13.053Z,63.00
2019-01-20T03:49:17.422Z,63.00
2019-01-20T03:52:21.824Z,63.00
2019-01-20T03:55:26.198Z,63.00
2019-01-20T03:58:30.597Z,63.00
2019-01-20T04:01:34.994Z,63.00
2019-01-20T04:04:39.368Z,63.00
2019-01-20T04:07:43.773Z,63.00
2019-01-20T04:10:48.147Z,63.00
2019-01-20T04:13:52.556Z,63.00
2019-01-20T04:16:45.889Z,63.00
2019-01-20T04:19:50.269Z,63.00
2019-01-20T04:22:54.665Z,63.00
2019-01-20T04:25:59.038Z,63.00
2019-01-20T04:29:03.434Z,63.00
2019-01-20T04:32:07.808Z,63.00
2019-01-20T04:35:12.208Z,63.00
2019-01-20T04:38:16.609Z,63.00
2019-01-20T04:41:20.981Z,63.00
2019-01-20T04:44:25.388Z,63.00
2019-01-20T04:47:18.684Z,63.00
2019-01-20T04:50:23.075Z,63.00
2019-01-20T04:53:27.478Z,63.00
2019-01-20T04:56:31.851Z,63.00
2019-01-20T04:59:36.250Z,63.00
2019-01-20T05:02:40.620Z,63.00
2019-01-20T05:05:45.019Z,63.00
2019-01-20T05:08:49.414Z,63.00
2019-01-20T05:11:53.789Z,63.00
2019-01-20T05:14:58.673Z,63.00
2019-01-20T05:18:03.072Z,63.00
2019-01-20T05:21:07.464Z,63.00
2019-01-20T05:24:11.870Z,62.00
2019-01-20T05:27:05.162Z,62.00
2019-01-20T05:30:09.572Z,62.00
2019-01-20T05:33:13.943Z,63.00
2019-01-20T05:36:18.338Z,62.00
2019-01-20T05:39:22.733Z,62.00
2019-01-20T05:42:27.113Z,62.00
2019-01-20T05:45:31.509Z,62.00
2019-01-20T05:48:35.909Z,63.00
2019-01-20T05:51:40.295Z,63.00
2019-01-20T05:54:44.694Z,63.00
2019-01-20T05:57:49.068Z,63.00
2019-01-20T06:00:53.466Z,63.00
2019-01-20T06:03:58.872Z,63.00
2019-01-20T06:06:52.181Z,63.00
2019-01-20T06:09:56.579Z,63.00
2019-01-20T06:13:00.951Z,63.00
2019-01-20T06:16:05.344Z,63.00
2019-01-20T06:19:09.748Z,63.00
2019-01-20T06:22:14.121Z,63.00
2019-01-20T06:25:18.523Z,63.00
2019-01-20T06:28:22.895Z,63.00
2019-01-20T06:31:27.286Z,63.00
2019-01-20T06:34:31.691Z,62.00
2019-01-20T06:37:25.049Z,63.00
2019-01-20T06:40:29.673Z,63.00
2019-01-20T06:43:33.926Z,63.00
2019-01-20T06:46:38.332Z,63.00
2019-01-20T06:49:42.730Z,62.00
2019-01-20T06:52:47.103Z,63.00
2019-01-20T06:55:51.510Z,63.00
2019-01-20T06:58:55.881Z,63.00
2019-01-20T07:02:00.288Z,63.00
2019-01-20T07:05:04.667Z,63.00
2019-01-20T07:08:09.034Z,63.00
2019-01-20T07:11:13.431Z,63.00
2019-01-20T07:14:17.801Z,63.00
2019-01-20T07:17:11.122Z,63.00
2019-01-20T07:20:15.522Z,63.00
2019-01-20T07:23:19.887Z,62.00
2019-01-20T07:26:24.281Z,63.00
2019-01-20T07:29:29.154Z,63.00
2019-01-20T07:32:33.548Z,63.00
2019-01-20T07:35:38.953Z,63.00
2019-01-20T07:38:43.333Z,63.00
2019-01-20T07:41:47.789Z,63.00
2019-01-20T07:44:52.166Z,64.00
2019-01-20T07:47:56.541Z,62.00
2019-01-20T07:51:00.934Z,61.00
2019-01-20T07:54:05.326Z,62.00
2019-01-20T07:56:58.658Z,61.00
2019-01-20T08:00:03.035Z,61.00
2019-01-20T08:03:07.430Z,60.00
2019-01-20T08:06:12.845Z,59.00
2019-01-20T08:09:17.230Z,60.00
2019-01-20T08:12:23.597Z,63.00
2019-01-20T08:15:25.981Z,60.00
2019-01-20T08:18:30.386Z,60.00
2019-01-20T08:21:34.794Z,59.00
2019-01-20T08:24:39.206Z,62.00
2019-01-20T08:27:32.519Z,58.00
2019-01-20T08:30:36.938Z,58.00
2019-01-20T08:33:41.334Z,59.00
2019-01-20T08:36:45.771Z,59.00
2019-01-20T08:39:50.168Z,65.00
2019-01-20T08:42:54.567Z,60.00
2019-01-20T08:45:58.985Z,60.00
2019-01-20T08:49:03.381Z,58.00
2019-01-20T08:52:07.814Z,61.00
2019-01-20T08:55:12.252Z,58.00
2019-01-20T08:58:16.656Z,60.00
2019-01-20T09:01:21.091Z,62.00
2019-01-20T09:04:25.494Z,60.00
2019-01-20T09:07:20.350Z,60.00
2019-01-20T09:10:24.757Z,59.00
2019-01-20T09:13:29.384Z,58.00
2019-01-20T09:16:33.637Z,58.00
2019-01-20T09:19:38.057Z,58.00
2019-01-20T09:22:42.486Z,58.00
2019-01-20T09:25:46.928Z,58.00
2019-01-20T09:28:51.344Z,60.00
2019-01-20T09:31:55.807Z,60.00
2019-01-20T09:35:00.192Z,60.00
2019-01-20T09:38:04.631Z,62.00
2019-01-20T09:41:09.070Z,58.00
2019-01-20T09:44:13.501Z,58.00
2019-01-20T09:47:06.873Z,58.00
2019-01-20T09:50:11.306Z,58.00
2019-01-20T09:53:15.758Z,58.00
2019-01-20T09:56:20.181Z,59.00
2019-01-20T09:59:24.628Z,58.00
2019-01-20T10:02:29.074Z,60.00
2019-01-20T10:05:33.501Z,60.00
2019-01-20T10:08:37.946Z,60.00
2019-01-20T10:11:42.370Z,60.00
2019-01-20T10:14:46.819Z,59.00
2019-01-20T10:17:51.263Z,58.00
2019-01-20T10:20:55.691Z,60.00
2019-01-20T10:24:00.137Z,60.00
2019-01-20T10:26:53.509Z,63.00
2019-01-20T10:29:57.959Z,61.00
2019-01-20T10:33:03.455Z,62.00
2019-01-20T10:36:06.845Z,60.00
2019-01-20T10:39:11.286Z,60.00
2019-01-20T10:42:15.716Z,59.00
2019-01-20T10:45:20.184Z,59.00
2019-01-20T10:48:24.639Z,59.00
2019-01-20T10:51:29.066Z,59.00
2019-01-20T10:54:33.514Z,59.00
2019-01-20T10:57:26.865Z,59.00
2019-01-20T11:00:31.309Z,59.00
2019-01-20T11:03:35.788Z,58.00
2019-01-20T11:06:40.215Z,59.00
2019-01-20T11:09:44.653Z,59.00
2019-01-20T11:12:49.087Z,61.00
2019-01-20T11:15:53.533Z,59.00
2019-01-20T11:18:57.983Z,58.00
2019-01-20T11:22:02.409Z,58.00
2019-01-20T11:25:06.862Z,58.00
2019-01-20T11:28:11.778Z,58.00
2019-01-20T11:31:16.223Z,58.00
2019-01-20T11:34:20.672Z,60.00
2019-01-20T11:37:14.022Z,60.00
2019-01-20T11:40:18.471Z,59.00
2019-01-20T11:43:22.905Z,58.00
2019-01-20T11:46:27.423Z,59.00
2019-01-20T11:49:32.203Z,58.00
2019-01-20T11:52:37.012Z,60.00
2019-01-20T11:55:41.623Z,59.00
2019-01-20T11:58:46.165Z,59.00
2019-01-20T12:01:50.921Z,60.00
2019-01-20T12:04:55.109Z,59.00
2019-01-20T12:07:59.551Z,59.00
2019-01-20T12:11:04.196Z,60.00
2019-01-20T12:14:09.969Z,59.00
2019-01-20T12:17:03.483Z,58.00
2019-01-20T12:20:08.115Z,58.00
2019-01-20T12:23:12.695Z,63.00
2019-01-20T12:26:17.377Z,62.00
2019-01-20T12:29:21.972Z,58.00
2019-01-20T12:32:26.575Z,60.00
2019-01-20T12:35:31.180Z,60.00
2019-01-20T12:38:35.804Z,58.00
2019-01-20T12:41:40.200Z,58.00
2019-01-20T12:44:44.744Z,58.00
2019-01-20T12:47:49.309Z,60.00
2019-01-20T12:50:53.801Z,60.00
2019-01-20T12:53:58.413Z,58.00
2019-01-20T12:56:51.847Z,58.00
2019-01-20T12:59:56.472Z,58.00
2019-01-20T13:03:01.021Z,58.00
2019-01-20T13:06:05.577Z,59.00
2019-01-20T13:09:10.185Z,59.00
2019-01-20T13:12:14.774Z,59.00
2019-01-20T13:15:19.433Z,58.00
2019-01-20T13:18:23.902Z,59.00
2019-01-20T13:21:28.382Z,62.00
2019-01-20T13:24:33.076Z,58.00
2019-01-20T13:27:26.743Z,59.00
2019-01-20T13:30:31.327Z,58.00
2019-01-20T13:33:35.949Z,59.00
2019-01-20T13:36:40.458Z,59.00
2019-01-20T13:39:44.800Z,59.00
2019-01-20T13:42:49.310Z,58.00
2019-01-20T13:45:53.827Z,58.00
2019-01-20T13:48:58.522Z,59.00
2019-01-20T13:52:02.947Z,59.00
2019-01-20T13:55:07.396Z,62.00
2019-01-20T13:58:11.827Z,58.00
2019-01-20T14:01:16.243Z,63.00
2019-01-20T14:04:20.678Z,58.00
2019-01-20T14:07:14.021Z,59.00
2019-01-20T14:10:18.455Z,60.00
2019-01-20T14:13:22.895Z,59.00
2019-01-20T14:16:27.308Z,59.00
2019-01-20T14:19:31.737Z,59.00
2019-01-20T14:22:36.153Z,60.00
2019-01-20T14:25:40.583Z,60.00
2019-01-20T14:28:45.021Z,60.00
2019-01-20T14:31:49.440Z,59.00
2019-01-20T14:34:53.919Z,60.00
2019-01-20T14:37:58.274Z,60.00
2019-01-20T14:41:02.706Z,59.00
2019-01-20T14:44:07.148Z,60.00
2019-01-20T14:47:00.479Z,60.00
2019-01-20T14:49:54.042Z,59.00
2019-01-20T14:52:58.633Z,59.00
2019-01-20T14:56:02.829Z,59.00
2019-01-20T14:59:07.267Z,60.00
2019-01-20T15:02:11.736Z,59.00
2019-01-20T15:05:16.560Z,60.00
2019-01-20T15:08:20.566Z,58.00
2019-01-20T15:11:25.156Z,59.00
2019-01-20T15:14:29.628Z,60.00
2019-01-20T15:17:22.983Z,59.00
2019-01-20T15:20:27.399Z,59.00
2019-01-20T15:23:31.787Z,59.00
2019-01-20T15:26:36.216Z,59.00
2019-01-20T15:29:40.640Z,60.00
2019-01-20T15:32:45.007Z,60.00
2019-01-20T15:35:50.426Z,60.00
2019-01-20T15:38:54.824Z,60.00
2019-01-20T15:41:59.242Z,63.00
2019-01-20T15:45:03.644Z,63.00
2019-01-20T15:48:09.040Z,62.00
2019-01-20T15:51:13.446Z,62.00
2019-01-20T15:54:17.840Z,62.00
2019-01-20T15:57:11.172Z,63.00
2019-01-20T16:00:15.581Z,62.00
2019-01-20T16:03:19.963Z,63.00
2019-01-20T16:06:24.365Z,64.00
2019-01-20T16:09:28.746Z,63.00
2019-01-20T16:12:33.145Z,63.00
2019-01-20T16:15:37.549Z,63.00
2019-01-20T16:18:41.925Z,63.00
2019-01-20T16:21:46.323Z,63.00
2019-01-20T16:24:50.702Z,63.00
2019-01-20T16:27:55.104Z,63.00
2019-01-20T16:30:59.462Z,63.00
2019-01-20T16:34:03.843Z,63.00
2019-01-20T16:36:57.165Z,63.00
2019-01-20T16:40:01.550Z,63.00
2019-01-20T16:43:05.938Z,63.00
2019-01-20T16:46:10.323Z,63.00
2019-01-20T16:49:14.733Z,63.00
2019-01-20T16:52:19.131Z,63.00
2019-01-20T16:55:23.508Z,63.00
2019-01-20T16:58:27.907Z,63.00
2019-01-20T17:01:32.278Z,63.00
2019-01-20T17:04:36.714Z,63.00
2019-01-20T17:07:30.022Z,63.00
2019-01-20T17:10:34.376Z,63.00
2019-01-20T17:13:38.768Z,63.00
2019-01-20T17:16:43.140Z,63.00
2019-01-20T17:19:47.535Z,63.00
2019-01-20T17:22:51.949Z,63.00
2019-01-20T17:25:56.322Z,63.00
2019-01-20T17:29:00.715Z,63.00
2019-01-20T17:32:05.096Z,63.00
2019-01-20T17:35:09.490Z,63.00
2019-01-20T17:38:13.887Z,63.00
2019-01-20T17:41:18.284Z,63.00
2019-01-20T17:44:22.685Z,63.00
2019-01-20T17:47:15.996Z,62.00
2019-01-20T17:50:20.394Z,63.00
2019-01-20T17:53:24.769Z,63.00
2019-01-20T17:56:30.188Z,63.00
2019-01-20T17:59:34.581Z,62.00
2019-01-20T18:02:39.021Z,63.00
2019-01-20T18:05:43.423Z,63.00
2019-01-20T18:08:47.864Z,62.00
2019-01-20T18:11:52.341Z,63.00
2019-01-20T18:14:56.883Z,62.00
2019-01-20T18:18:01.302Z,62.00
2019-01-20T18:21:05.845Z,62.00
2019-01-20T18:24:10.222Z,62.00
2019-01-20T18:27:03.762Z,62.00
2019-01-20T18:30:08.065Z,62.00
2019-01-20T18:33:12.493Z,62.00
2019-01-20T18:36:16.890Z,62.00
2019-01-20T18:39:21.274Z,62.00
2019-01-20T18:42:25.704Z,63.00
2019-01-20T18:45:30.137Z,62.00
2019-01-20T18:48:34.581Z,63.00
2019-01-20T18:51:39.026Z,63.00
2019-01-20T18:54:43.402Z,62.00
2019-01-20T18:57:47.797Z,62.00
2019-01-20T19:00:52.201Z,62.00
2019-01-20T19:03:56.588Z,62.00
2019-01-20T19:06:49.907Z,63.00
2019-01-20T19:09:54.279Z,63.00
2019-01-20T19:12:58.671Z,63.00
2019-01-20T19:16:08.880Z,63.00
2019-01-20T19:19:07.445Z,63.00
2019-01-20T19:22:11.843Z,64.00
2019-01-20T19:25:16.217Z,62.00
2019-01-20T19:28:20.615Z,62.00
2019-01-20T19:31:24.984Z,63.00
2019-01-20T19:34:29.388Z,62.00
2019-01-20T19:37:22.713Z,62.00
2019-01-20T19:40:27.080Z,63.00
2019-01-20T19:43:31.469Z,62.00
2019-01-20T19:46:35.855Z,62.00
2019-01-20T19:49:40.252Z,63.00
2019-01-20T19:52:44.650Z,62.00
2019-01-20T19:55:49.021Z,62.00
2019-01-20T19:58:53.421Z,62.00
2019-01-20T20:01:57.790Z,62.00
2019-01-20T20:05:02.187Z,62.00
2019-01-20T20:08:06.582Z,62.00
2019-01-20T20:11:10.960Z,62.00
2019-01-20T20:14:15.361Z,62.00
2019-01-20T20:17:08.670Z,62.00
2019-01-20T20:20:13.062Z,62.00
2019-01-20T20:23:17.467Z,62.00
2019-01-20T20:26:22.857Z,62.00
2019-01-20T20:29:27.251Z,62.00
2019-01-20T20:32:31.631Z,62.00
2019-01-20T20:35:36.036Z,62.00
2019-01-20T20:38:40.429Z,62.00
2019-01-20T20:41:44.807Z,62.00
2019-01-20T20:44:49.200Z,62.00
2019-01-20T20:47:53.574Z,62.00
2019-01-20T20:50:57.972Z,62.00
2019-01-20T20:54:02.367Z,63.00
2019-01-20T20:56:55.667Z,63.00
2019-01-20T21:00:00.094Z,63.00
2019-01-20T21:03:04.465Z,63.00
2019-01-20T21:06:08.862Z,63.00
2019-01-20T21:09:13.267Z,63.00
2019-01-20T21:12:17.643Z,63.00
2019-01-20T21:15:22.040Z,63.00
2019-01-20T21:18:26.415Z,63.00
2019-01-20T21:21:30.809Z,63.00
2019-01-20T21:24:35.208Z,63.00
2019-01-20T21:27:28.513Z,63.00
2019-01-20T21:30:32.913Z,63.00
2019-01-20T21:33:37.287Z,63.00
2019-01-20T21:36:41.682Z,63.00
2019-01-20T21:39:46.064Z,63.00
2019-01-20T21:42:50.461Z,63.00
2019-01-20T21:45:54.856Z,63.00
2019-01-20T21:48:59.232Z,63.00
2019-01-20T21:52:03.628Z,63.00
2019-01-20T21:55:08.005Z,63.00
2019-01-20T21:58:12.405Z,63.00
2019-01-20T22:01:16.814Z,63.00
2019-01-20T22:04:21.178Z,63.00
2019-01-20T22:07:14.505Z,63.00
2019-01-20T22:10:18.884Z,63.00
2019-01-20T22:13:23.279Z,63.00
2019-01-20T22:16:27.688Z,63.00
2019-01-20T22:19:32.062Z,63.00
2019-01-20T22:22:36.453Z,63.00
2019-01-20T22:25:40.827Z,63.00
2019-01-20T22:28:45.221Z,63.00
2019-01-20T22:31:49.589Z,63.00
2019-01-20T22:34:53.981Z,63.00
2019-01-20T22:37:58.376Z,63.00
2019-01-20T22:41:02.749Z,63.00
2019-01-20T22:44:07.151Z,63.00
2019-01-20T22:47:00.625Z,63.00
2019-01-20T22:50:04.840Z,63.00
2019-01-20T22:53:09.283Z,63.00
2019-01-20T22:56:13.604Z,63.00
2019-01-20T22:59:18.006Z,62.00
2019-01-20T23:02:22.402Z,63.00
2019-01-20T23:05:26.779Z,63.00
2019-01-20T23:08:31.175Z,63.00
2019-01-20T23:11:35.548Z,63.00
2019-01-20T23:14:39.943Z,63.00
2019-01-20T23:17:33.260Z,63.00
2019-01-20T23:20:37.661Z,63.00
2019-01-20T23:23:42.039Z,63.00
2019-01-20T23:26:46.430Z,63.00
2019-01-20T23:29:50.823Z,63.00
2019-01-20T23:32:55.192Z,63.00
2019-01-20T23:35:59.596Z,63.00
2019-01-20T23:39:03.955Z,63.00
2019-01-20T23:42:09.366Z,63.00
2019-01-20T23:45:13.757Z,63.00
2019-01-20T23:48:18.128Z,63.00
2019-01-20T23:51:22.526Z,63.00
2019-01-20T23:54:26.903Z,63.00
2019-01-20T23:57:20.227Z,63.00
